createdAt,value
2024-02-21T00:02:12.953Z,91.60
2024-02-21T00:05:15.650Z,91.14
2024-02-21T00:08:17.784Z,90.97
2024-02-21T00:11:19.680Z,90.80
2024-02-21T00:14:21.580Z,90.04
2024-02-21T00:17:23.924Z,89.84
2024-02-21T00:20:26.176Z,89.64
2024-02-21T00:23:28.706Z,90.47
2024-02-21T00:26:30.530Z,89.91
2024-02-21T00:29:33.044Z,90.58
2024-02-21T00:32:35.074Z,90.28
2024-02-21T00:35:36.811Z,90.19
2024-02-21T00:38:39.154Z,90.45
2024-02-21T00:41:41.373Z,90.36
2024-02-21T00:44:43.311Z,90.14
2024-02-21T00:47:45.964Z,89.65
2024-02-21T00:50:48.137Z,89.54
2024-02-21T00:53:50.029Z,89.32
2024-02-21T00:56:51.719Z,88.70
2024-02-21T00:59:53.618Z,88.44
2024-02-21T01:02:55.695Z,87.52
2024-02-21T01:05:58.074Z,87.41
2024-02-21T01:09:00.345Z,86.05
2024-02-21T01:12:02.098Z,85.74
2024-02-21T01:15:04.632Z,85.70
2024-02-21T01:18:06.587Z,85.27
2024-02-21T01:21:09.431Z,84.82
2024-02-21T01:24:11.597Z,84.39
2024-02-21T01:27:13.350Z,84.24
2024-02-21T01:30:15.673Z,84.18
2024-02-21T01:33:17.286Z,84.83
2024-02-21T01:36:19.457Z,84.81
2024-02-21T01:39:21.472Z,84.50
2024-02-21T01:42:23.339Z,84.46
2024-02-21T01:45:25.446Z,84.86
2024-02-21T01:48:27.728Z,85.34
2024-02-21T01:51:30.222Z,86.17
2024-02-21T01:54:32.837Z,85.87
2024-02-21T01:57:34.943Z,86.31
2024-02-21T02:00:39.179Z,86.71
2024-02-21T02:03:41.629Z,86.65
2024-02-21T02:06:44.616Z,87.32
2024-02-21T02:09:46.933Z,87.93
2024-02-21T02:12:49.056Z,88.65
2024-02-21T02:15:51.703Z,88.97
2024-02-21T02:18:53.871Z,88.98
2024-02-21T02:22:04.438Z,88.72
2024-02-21T02:25:06.671Z,89.16
2024-02-21T02:28:09.158Z,89.06
2024-02-21T02:31:10.918Z,89.95
2024-02-21T02:34:13.238Z,90.58
2024-02-21T02:37:15.575Z,91.07
2024-02-21T02:40:19.234Z,91.78
2024-02-21T02:43:20.950Z,91.65
2024-02-21T02:46:22.879Z,91.86
2024-02-21T02:49:25.372Z,92.34
2024-02-21T02:52:27.306Z,93.39
2024-02-21T02:55:29.731Z,93.47
2024-02-21T02:58:31.849Z,93.40
2024-02-21T03:01:35.724Z,93.69
2024-02-21T03:04:41.054Z,93.42
2024-02-21T03:07:43.775Z,93.56
2024-02-21T03:10:45.748Z,94.00
2024-02-21T03:13:48.067Z,94.31
2024-02-21T03:16:52.671Z,94.32
2024-02-21T03:19:54.732Z,94.41
2024-02-21T03:22:57.033Z,93.36
2024-02-21T03:25:58.971Z,93.40
2024-02-21T03:29:00.646Z,92.90
2024-02-21T03:32:02.915Z,92.88
2024-02-21T03:35:05.570Z,92.75
2024-02-21T03:38:07.304Z,91.99
2024-02-21T03:41:09.304Z,91.70
2024-02-21T03:44:11.169Z,91.56
2024-02-21T03:47:13.291Z,91.86
2024-02-21T03:50:15.789Z,92.04
2024-02-21T03:53:17.411Z,92.67
2024-02-21T03:56:19.661Z,93.11
2024-02-21T03:59:22.264Z,93.12
2024-02-21T04:02:24.480Z,93.63
2024-02-21T04:05:26.972Z,93.72
2024-02-21T04:08:29.621Z,93.97
2024-02-21T04:11:31.452Z,94.11
2024-02-21T04:14:33.441Z,94.53
2024-02-21T04:17:35.933Z,94.97
2024-02-21T04:20:38.003Z,95.31
2024-02-21T04:23:39.933Z,96.03
2024-02-21T04:26:42.110Z,96.35
2024-02-21T04:29:44.367Z,96.90
2024-02-21T04:32:46.592Z,97.22
2024-02-21T04:35:48.227Z,97.41
2024-02-21T04:38:50.408Z,97.43
2024-02-21T04:41:52.653Z,97.37
2024-02-21T04:44:54.887Z,97.38
2024-02-21T04:47:56.602Z,96.77
2024-02-21T04:50:58.398Z,96.54
2024-02-21T04:54:00.039Z,96.59
2024-02-21T04:57:01.769Z,96.51
2024-02-21T05:00:03.884Z,96.27
2024-02-21T05:03:05.900Z,96.68
2024-02-21T05:06:07.641Z,96.82
2024-02-21T05:09:10.392Z,96.37
2024-02-21T05:12:12.477Z,96.56
2024-02-21T05:15:14.715Z,96.51
2024-02-21T05:18:16.910Z,96.16
2024-02-21T05:21:18.941Z,96.23
2024-02-21T05:24:20.642Z,96.14
2024-02-21T05:27:22.897Z,96.49
2024-02-21T05:30:25.233Z,96.65
2024-02-21T05:33:26.991Z,96.88
2024-02-21T05:36:28.816Z,97.22
2024-02-21T05:39:31.675Z,97.22
2024-02-21T05:42:33.700Z,97.33
2024-02-21T05:45:35.970Z,97.63
2024-02-21T05:48:39.950Z,97.66
2024-02-21T05:51:42.183Z,97.47
2024-02-21T05:54:43.951Z,97.54
2024-02-21T05:57:46.493Z,97.18
2024-02-21T06:00:48.450Z,97.62
2024-02-21T06:03:50.665Z,97.39
2024-02-21T06:06:52.884Z,97.36
2024-02-21T06:09:55.121Z,97.35
2024-02-21T06:12:57.449Z,96.99
2024-02-21T06:15:59.146Z,96.67
2024-02-21T06:19:01.091Z,96.12
2024-02-21T06:22:03.634Z,96.29
2024-02-21T06:25:06.138Z,95.78
2024-02-21T06:28:08.081Z,95.46
2024-02-21T06:31:09.768Z,95.27
2024-02-21T06:34:11.851Z,95.11
2024-02-21T06:37:13.633Z,95.45
2024-02-21T06:40:15.960Z,95.02
2024-02-21T06:43:19.425Z,93.47
2024-02-21T06:46:26.112Z,92.93
2024-02-21T06:49:28.002Z,92.43
2024-02-21T06:52:29.753Z,92.19
2024-02-21T06:55:31.872Z,91.47
2024-02-21T06:58:33.595Z,91.20
2024-02-21T07:01:35.914Z,90.43
2024-02-21T07:04:37.824Z,90.53
2024-02-21T07:07:39.805Z,90.00
2024-02-21T07:10:41.559Z,90.00
2024-02-21T07:13:43.420Z,89.32
2024-02-21T07:16:45.877Z,88.82
2024-02-21T07:19:47.772Z,88.18
2024-02-21T07:22:53.083Z,88.50
2024-02-21T07:25:54.894Z,87.33
2024-02-21T07:28:57.128Z,87.16
2024-02-21T07:31:59.302Z,86.21
2024-02-21T07:35:01.348Z,85.53
2024-02-21T07:38:04.527Z,85.36
2024-02-21T07:41:06.965Z,84.03
2024-02-21T07:44:09.971Z,83.88
2024-02-21T07:47:11.905Z,83.17
2024-02-21T07:50:13.781Z,82.97
2024-02-21T07:53:16.237Z,82.03
2024-02-21T07:56:21.640Z,82.44
2024-02-21T07:59:27.483Z,81.65
2024-02-21T08:02:31.340Z,82.21
2024-02-21T08:05:36.189Z,81.50
2024-02-21T08:08:39.217Z,79.78
2024-02-21T08:11:43.387Z,79.00
2024-02-21T08:14:45.561Z,77.84
2024-02-21T08:17:47.241Z,77.58
2024-02-21T08:20:49.161Z,78.79
2024-02-21T08:23:51.586Z,78.41
2024-02-21T08:26:53.943Z,78.96
2024-02-21T08:29:56.585Z,78.66
2024-02-21T08:33:01.665Z,78.31
2024-02-21T08:36:04.196Z,77.43
2024-02-21T08:39:06.171Z,76.92
2024-02-21T08:42:08.838Z,76.67
2024-02-21T08:45:11.760Z,75.02
2024-02-21T08:48:13.852Z,73.29
2024-02-21T08:51:16.202Z,71.80
2024-02-21T08:54:18.643Z,72.75
2024-02-21T08:57:20.933Z,72.28
2024-02-21T09:00:22.916Z,71.91
2024-02-21T09:03:25.060Z,72.58
2024-02-21T09:06:27.241Z,72.35
2024-02-21T09:09:29.931Z,72.24
2024-02-21T09:12:33.046Z,72.77
2024-02-21T09:15:35.926Z,72.61
2024-02-21T09:18:38.777Z,72.83
2024-02-21T09:21:40.664Z,72.60
2024-02-21T09:24:42.656Z,71.66
2024-02-21T09:27:45.709Z,71.21
2024-02-21T09:30:48.856Z,70.99
2024-02-21T09:33:51.050Z,70.21
2024-02-21T09:36:53.506Z,69.02
2024-02-21T09:39:55.206Z,67.79
2024-02-21T09:43:05.571Z,66.12
2024-02-21T09:46:09.330Z,64.46
2024-02-21T09:49:30.722Z,64.71
2024-02-21T09:52:33.933Z,63.62
2024-02-21T09:55:36.731Z,63.21
2024-02-21T09:58:39.087Z,63.34
2024-02-21T10:01:41.777Z,63.34
2024-02-21T10:04:44.139Z,63.60
2024-02-21T10:07:46.388Z,61.62
2024-02-21T10:10:48.272Z,61.16
2024-02-21T10:13:52.928Z,61.01
2024-02-21T10:16:58.896Z,62.44
2024-02-21T10:20:09.227Z,62.21
2024-02-21T10:23:11.601Z,63.39
2024-02-21T10:26:15.658Z,62.67
2024-02-21T10:29:18.256Z,61.47
2024-02-21T10:32:20.092Z,61.36
2024-02-21T10:35:31.560Z,62.25
2024-02-21T10:38:34.036Z,62.52
2024-02-21T10:41:38.131Z,61.38
2024-02-21T10:44:42.405Z,61.76
2024-02-21T10:47:56.308Z,61.73
2024-02-21T10:51:10.032Z,62.12
2024-02-21T10:54:32.806Z,62.44
2024-02-21T10:57:35.782Z,61.22
2024-02-21T11:00:38.801Z,61.31
2024-02-21T11:03:41.046Z,59.64
2024-02-21T11:06:43.983Z,60.74
2024-02-21T11:09:54.474Z,59.58
2024-02-21T11:13:07.951Z,59.00
2024-02-21T11:16:11.372Z,59.26
2024-02-21T11:19:26.406Z,61.34
2024-02-21T11:22:28.854Z,61.59
2024-02-21T11:25:31.655Z,62.36
2024-02-21T11:28:33.949Z,63.45
2024-02-21T11:31:41.368Z,63.30
2024-02-21T11:35:01.199Z,61.49
2024-02-21T11:38:12.678Z,59.73
2024-02-21T11:41:16.924Z,57.59
2024-02-21T11:44:19.552Z,58.38
2024-02-21T11:47:22.568Z,58.81
2024-02-21T11:50:24.672Z,59.01
2024-02-21T11:53:26.631Z,57.97
2024-02-21T11:56:29.210Z,58.61
2024-02-21T11:59:32.003Z,58.96
2024-02-21T12:02:33.722Z,58.54
2024-02-21T12:05:38.339Z,60.27
2024-02-21T12:08:44.070Z,59.36
2024-02-21T12:11:46.877Z,60.99
2024-02-21T12:14:56.811Z,60.55
2024-02-21T12:17:58.863Z,59.15
2024-02-21T12:21:01.376Z,59.21
2024-02-21T12:24:18.258Z,49.73
2024-02-21T12:27:19.961Z,36.76
2024-02-21T12:30:21.739Z,32.41
2024-02-21T12:33:23.514Z,25.15
2024-02-21T12:36:25.837Z,31.65
2024-02-21T12:39:27.581Z,40.25
2024-02-21T12:42:29.551Z,46.80
2024-02-21T12:45:31.880Z,48.43
2024-02-21T12:48:34.695Z,50.39
2024-02-21T12:51:37.124Z,51.94
2024-02-21T12:54:42.684Z,52.90
2024-02-21T12:57:44.449Z,54.69
2024-02-21T13:00:46.633Z,56.58
2024-02-21T13:03:48.709Z,57.26
2024-02-21T13:06:51.672Z,56.31
2024-02-21T13:09:53.419Z,56.76
2024-02-21T13:12:55.891Z,57.55
2024-02-21T13:16:00.393Z,60.73
2024-02-21T13:19:02.159Z,57.97
2024-02-21T13:22:04.840Z,59.36
2024-02-21T13:25:07.584Z,56.50
2024-02-21T13:28:09.758Z,55.76
2024-02-21T13:31:11.927Z,49.50
2024-02-21T13:34:13.856Z,48.52
2024-02-21T13:37:15.652Z,46.82
2024-02-21T13:40:19.498Z,44.72
2024-02-21T13:43:22.317Z,48.76
2024-02-21T13:46:24.890Z,50.48
2024-02-21T13:49:27.901Z,51.45
2024-02-21T13:52:29.929Z,54.17
2024-02-21T13:55:32.597Z,54.19
2024-02-21T13:58:34.913Z,55.18
2024-02-21T14:01:46.064Z,54.36
2024-02-21T14:04:48.690Z,54.75
2024-02-21T14:07:51.046Z,56.21
2024-02-21T14:10:55.826Z,55.70
2024-02-21T14:13:57.614Z,55.92
2024-02-21T14:16:59.974Z,56.00
2024-02-21T14:20:02.307Z,56.09
2024-02-21T14:23:05.884Z,57.01
2024-02-21T14:26:10.016Z,57.27
2024-02-21T14:29:12.764Z,56.78
2024-02-21T14:32:14.908Z,55.17
2024-02-21T14:35:16.954Z,55.35
2024-02-21T14:38:20.164Z,55.46
2024-02-21T14:41:22.561Z,56.65
2024-02-21T14:44:24.501Z,56.07
2024-02-21T14:47:26.214Z,55.42
2024-02-21T14:50:28.325Z,55.31
2024-02-21T14:53:31.040Z,55.49
2024-02-21T14:56:33.238Z,55.57
2024-02-21T14:59:35.738Z,55.46
2024-02-21T15:02:38.341Z,55.19
2024-02-21T15:05:40.870Z,54.99
2024-02-21T15:08:43.410Z,55.16
2024-02-21T15:11:46.292Z,55.40
2024-02-21T15:14:48.089Z,55.13
2024-02-21T15:17:50.150Z,54.50
2024-02-21T15:20:52.281Z,54.21
2024-02-21T15:23:54.052Z,54.04
2024-02-21T15:26:55.824Z,54.30
2024-02-21T15:29:58.425Z,54.13
2024-02-21T15:33:01.705Z,53.25
2024-02-21T15:36:03.920Z,52.57
2024-02-21T15:39:05.588Z,53.12
2024-02-21T15:42:07.343Z,53.64
2024-02-21T15:45:10.059Z,53.98
2024-02-21T15:48:11.789Z,54.69
2024-02-21T15:51:13.448Z,54.76
2024-02-21T15:54:18.353Z,54.72
2024-02-21T15:57:22.209Z,55.31
2024-02-21T16:00:23.912Z,54.83
2024-02-21T16:03:27.216Z,55.20
2024-02-21T16:06:29.638Z,55.85
2024-02-21T16:09:31.893Z,56.49
2024-02-21T16:12:34.406Z,56.59
2024-02-21T16:15:37.003Z,56.99
2024-02-21T16:18:39.116Z,56.97
2024-02-21T16:21:44.197Z,57.08
2024-02-21T16:24:46.364Z,57.12
2024-02-21T16:27:48.392Z,56.84
2024-02-21T16:30:50.585Z,56.97
2024-02-21T16:33:52.408Z,57.33
2024-02-21T16:36:56.409Z,57.67
2024-02-21T16:39:58.070Z,57.69
2024-02-21T16:43:00.635Z,58.21
2024-02-21T16:46:02.866Z,57.90
2024-02-21T16:49:05.084Z,58.14
2024-02-21T16:52:06.774Z,58.85
2024-02-21T16:55:08.978Z,58.85
2024-02-21T16:58:11.581Z,59.40
2024-02-21T17:01:14.556Z,58.80
2024-02-21T17:04:17.246Z,58.43
2024-02-21T17:07:19.441Z,58.75
2024-02-21T17:10:21.831Z,58.92
2024-02-21T17:13:23.808Z,58.86
2024-02-21T17:16:25.821Z,59.15
2024-02-21T17:19:27.951Z,59.47
2024-02-21T17:22:34.583Z,58.75
2024-02-21T17:25:36.724Z,58.54
2024-02-21T17:28:38.485Z,58.76
2024-02-21T17:31:40.262Z,58.62
2024-02-21T17:34:42.661Z,58.32
2024-02-21T17:37:45.066Z,58.61
2024-02-21T17:40:47.087Z,58.59
2024-02-21T17:43:52.580Z,58.71
2024-02-21T17:46:54.212Z,58.65
2024-02-21T17:49:56.001Z,59.12
2024-02-21T17:52:57.984Z,58.97
2024-02-21T17:56:00.025Z,59.37
2024-02-21T17:59:02.204Z,59.10
2024-02-21T18:02:04.020Z,59.89
2024-02-21T18:05:06.697Z,59.83
2024-02-21T18:08:08.570Z,60.75
2024-02-21T18:11:11.158Z,61.86
2024-02-21T18:14:13.107Z,61.22
2024-02-21T18:17:15.065Z,60.92
2024-02-21T18:20:20.492Z,60.89
2024-02-21T18:23:22.346Z,60.81
2024-02-21T18:26:24.462Z,61.17
2024-02-21T18:29:37.402Z,61.28
2024-02-21T18:32:41.719Z,61.64
2024-02-21T18:35:43.561Z,61.77
2024-02-21T18:38:45.793Z,62.20
2024-02-21T18:41:48.092Z,62.71
2024-02-21T18:44:49.794Z,62.90
2024-02-21T18:47:52.054Z,63.34
2024-02-21T18:50:54.337Z,63.20
2024-02-21T18:53:57.016Z,62.99
2024-02-21T18:56:59.591Z,62.76
2024-02-21T19:00:01.315Z,62.85
2024-02-21T19:03:03.221Z,63.17
2024-02-21T19:06:05.481Z,63.66
2024-02-21T19:09:07.140Z,63.97
2024-02-21T19:12:12.331Z,63.96
2024-02-21T19:15:15.651Z,64.48
2024-02-21T19:18:17.835Z,64.83
2024-02-21T19:21:20.096Z,64.54
2024-02-21T19:24:22.070Z,65.21
2024-02-21T19:27:23.904Z,64.84
2024-02-21T19:30:25.916Z,65.76
2024-02-21T19:33:27.894Z,65.73
2024-02-21T19:36:30.764Z,65.93
2024-02-21T19:39:33.440Z,67.24
2024-02-21T19:42:35.212Z,67.18
2024-02-21T19:45:37.243Z,66.93
2024-02-21T19:48:39.899Z,66.55
2024-02-21T19:51:41.676Z,66.92
2024-02-21T19:54:43.363Z,67.10
2024-02-21T19:57:45.967Z,67.86
2024-02-21T20:00:47.697Z,67.86
2024-02-21T20:03:49.445Z,67.53
2024-02-21T20:06:51.621Z,67.97
2024-02-21T20:09:53.797Z,67.93
2024-02-21T20:12:56.265Z,68.78
2024-02-21T20:15:58.158Z,68.92
2024-02-21T20:19:00.525Z,69.29
2024-02-21T20:22:02.747Z,69.10
2024-02-21T20:25:05.055Z,70.13
2024-02-21T20:28:07.282Z,69.16
2024-02-21T20:31:09.106Z,69.22
2024-02-21T20:34:10.881Z,68.83
2024-02-21T20:37:12.535Z,69.56
2024-02-21T20:40:14.803Z,69.43
2024-02-21T20:43:16.829Z,69.79
2024-02-21T20:46:18.593Z,70.74
2024-02-21T20:49:20.620Z,71.35
2024-02-21T20:52:22.896Z,71.56
2024-02-21T20:55:25.782Z,71.90
2024-02-21T20:58:27.835Z,72.64
2024-02-21T21:01:29.643Z,73.13
2024-02-21T21:04:32.553Z,72.91
2024-02-21T21:07:35.176Z,73.64
2024-02-21T21:10:37.207Z,74.24
2024-02-21T21:13:39.837Z,73.95
2024-02-21T21:16:42.026Z,74.01
2024-02-21T21:19:43.915Z,74.58
2024-02-21T21:22:45.738Z,74.69
2024-02-21T21:25:47.560Z,74.76
2024-02-21T21:28:49.781Z,75.66
2024-02-21T21:31:52.221Z,75.40
2024-02-21T21:34:54.630Z,76.65
2024-02-21T21:37:56.644Z,76.74
2024-02-21T21:40:58.865Z,75.49
2024-02-21T21:44:01.075Z,75.56
2024-02-21T21:47:03.403Z,75.82
2024-02-21T21:50:05.507Z,75.64
2024-02-21T21:53:07.984Z,76.48
2024-02-21T21:56:10.064Z,76.38
2024-02-21T21:59:12.026Z,77.02
2024-02-21T22:02:14.056Z,77.34
2024-02-21T22:05:16.772Z,77.30
2024-02-21T22:08:18.947Z,77.51
2024-02-21T22:11:20.767Z,77.20
2024-02-21T22:14:23.176Z,77.16
2024-02-21T22:17:25.429Z,77.44
2024-02-21T22:20:27.525Z,77.17
2024-02-21T22:23:29.533Z,76.96
2024-02-21T22:26:31.281Z,78.03
2024-02-21T22:29:33.301Z,78.69
2024-02-21T22:32:35.225Z,79.51
2024-02-21T22:35:37.674Z,79.35
2024-02-21T22:38:40.009Z,79.41
2024-02-21T22:41:42.325Z,78.49
2024-02-21T22:44:44.175Z,77.10
2024-02-21T22:47:47.901Z,76.78
2024-02-21T22:50:49.671Z,76.87
2024-02-21T22:53:51.781Z,76.90
2024-02-21T22:56:53.992Z,76.84
2024-02-21T22:59:56.232Z,77.89
2024-02-21T23:02:57.896Z,77.36
2024-02-21T23:06:00.176Z,77.53
2024-02-21T23:09:01.887Z,77.60
2024-02-21T23:12:04.072Z,78.63
2024-02-21T23:15:06.966Z,79.91
2024-02-21T23:18:09.711Z,80.52
2024-02-21T23:21:11.779Z,81.46
2024-02-21T23:24:13.727Z,82.46
2024-02-21T23:27:16.053Z,82.96
2024-02-21T23:30:17.906Z,83.12
2024-02-21T23:33:19.619Z,83.21
2024-02-21T23:36:22.537Z,83.07
2024-02-21T23:39:24.420Z,82.15
2024-02-21T23:42:26.446Z,82.67
2024-02-21T23:45:28.486Z,83.90
2024-02-21T23:48:30.642Z,83.99
2024-02-21T23:51:32.752Z,83.11
2024-02-21T23:54:35.115Z,83.32
2024-02-21T23:57:37.056Z,83.32
